sensor_id;sensor_type;location;lat;lon;timestamp;P1;durP1;ratioP1;P2;durP2;ratioP2
46563;SDS011;32291;52.010;4.446;2022-12-18T00:00:23;87.85;;;40.58;;
46563;SDS011;32291;52.010;4.446;2022-12-18T00:01:32;82.90;;;38.72;;
46563;SDS011;32291;52.010;4.446;2022-12-18T00:02:36;81.10;;;39.70;;
46563;SDS011;32291;52.010;4.446;2022-12-18T00:03:38;82.93;;;37.20;;
46563;SDS011;32291;52.010;4.446;2022-12-18T00:04:41;85.63;;;39.97;;
46563;SDS011;32291;52.010;4.446;2022-12-18T00:05:46;87.07;;;40.10;;
46563;SDS011;32291;52.010;4.446;2022-12-18T00:06:50;88.07;;;39.92;;
46563;SDS011;32291;52.010;4.446;2022-12-18T00:07:53;86.85;;;39.83;;
46563;SDS011;32291;52.010;4.446;2022-12-18T00:08:55;84.47;;;40.90;;
46563;SDS011;32291;52.010;4.446;2022-12-18T00:09:59;84.25;;;39.33;;
46563;SDS011;32291;52.010;4.446;2022-12-18T00:11:04;82.20;;;39.33;;
46563;SDS011;32291;52.010;4.446;2022-12-18T00:12:11;77.30;;;38.00;;
46563;SDS011;32291;52.010;4.446;2022-12-18T00:13:13;90.45;;;37.03;;
46563;SDS011;32291;52.010;4.446;2022-12-18T00:14:15;90.95;;;38.97;;
46563;SDS011;32291;52.010;4.446;2022-12-18T00:15:17;78.57;;;37.58;;
46563;SDS011;32291;52.010;4.446;2022-12-18T00:16:21;80.80;;;38.15;;
46563;SDS011;32291;52.010;4.446;2022-12-18T00:17:26;76.82;;;35.58;;
46563;SDS011;32291;52.010;4.446;2022-12-18T00:18:28;79.20;;;38.10;;
46563;SDS011;32291;52.010;4.446;2022-12-18T00:19:30;77.63;;;37.45;;
46563;SDS011;32291;52.010;4.446;2022-12-18T00:20:35;78.38;;;36.63;;
46563;SDS011;32291;52.010;4.446;2022-12-18T00:21:39;77.20;;;35.83;;
46563;SDS011;32291;52.010;4.446;2022-12-18T00:22:43;79.25;;;37.30;;
46563;SDS011;32291;52.010;4.446;2022-12-18T00:23:45;81.07;;;37.25;;
46563;SDS011;32291;52.010;4.446;2022-12-18T00:24:48;82.35;;;41.63;;
46563;SDS011;32291;52.010;4.446;2022-12-18T00:25:50;76.38;;;35.90;;
46563;SDS011;32291;52.010;4.446;2022-12-18T00:26:53;69.22;;;36.35;;
46563;SDS011;32291;52.010;4.446;2022-12-18T00:27:55;79.18;;;37.05;;
46563;SDS011;32291;52.010;4.446;2022-12-18T00:29:00;68.70;;;34.45;;
46563;SDS011;32291;52.010;4.446;2022-12-18T00:30:08;68.32;;;35.97;;
46563;SDS011;32291;52.010;4.446;2022-12-18T00:31:12;74.43;;;36.45;;
46563;SDS011;32291;52.010;4.446;2022-12-18T00:32:24;77.50;;;37.05;;
46563;SDS011;32291;52.010;4.446;2022-12-18T00:33:27;69.60;;;35.42;;
46563;SDS011;32291;52.010;4.446;2022-12-18T00:34:29;64.35;;;35.50;;
46563;SDS011;32291;52.010;4.446;2022-12-18T00:35:31;66.57;;;35.10;;
46563;SDS011;32291;52.010;4.446;2022-12-18T00:36:34;70.72;;;34.53;;
46563;SDS011;32291;52.010;4.446;2022-12-18T00:37:36;70.43;;;36.05;;
46563;SDS011;32291;52.010;4.446;2022-12-18T00:38:38;72.55;;;37.00;;
46563;SDS011;32291;52.010;4.446;2022-12-18T00:39:41;68.00;;;33.55;;
46563;SDS011;32291;52.010;4.446;2022-12-18T00:40:43;75.22;;;36.55;;
46563;SDS011;32291;52.010;4.446;2022-12-18T00:41:45;76.15;;;35.30;;
46563;SDS011;32291;52.010;4.446;2022-12-18T00:43:06;64.97;;;33.75;;
46563;SDS011;32291;52.010;4.446;2022-12-18T00:44:11;78.75;;;36.33;;
46563;SDS011;32291;52.010;4.446;2022-12-18T00:45:16;75.28;;;36.67;;
46563;SDS011;32291;52.010;4.446;2022-12-18T00:46:18;76.47;;;36.53;;
46563;SDS011;32291;52.010;4.446;2022-12-18T00:47:20;79.93;;;36.65;;
46563;SDS011;32291;52.010;4.446;2022-12-18T00:48:22;73.00;;;36.65;;
46563;SDS011;32291;52.010;4.446;2022-12-18T00:49:24;78.90;;;36.90;;
46563;SDS011;32291;52.010;4.446;2022-12-18T00:50:25;77.75;;;37.75;;
46563;SDS011;32291;52.010;4.446;2022-12-18T00:51:27;76.50;;;36.67;;
46563;SDS011;32291;52.010;4.446;2022-12-18T00:52:29;72.90;;;37.42;;
46563;SDS011;32291;52.010;4.446;2022-12-18T00:53:31;79.85;;;36.33;;
46563;SDS011;32291;52.010;4.446;2022-12-18T00:54:33;73.65;;;36.55;;
46563;SDS011;32291;52.010;4.446;2022-12-18T00:55:35;79.95;;;37.53;;
46563;SDS011;32291;52.010;4.446;2022-12-18T00:56:40;81.28;;;37.15;;
46563;SDS011;32291;52.010;4.446;2022-12-18T00:57:42;78.22;;;36.03;;
46563;SDS011;32291;52.010;4.446;2022-12-18T00:58:44;75.82;;;38.20;;
46563;SDS011;32291;52.010;4.446;2022-12-18T00:59:46;80.05;;;36.58;;
46563;SDS011;32291;52.010;4.446;2022-12-18T01:00:47;80.65;;;37.35;;
46563;SDS011;32291;52.010;4.446;2022-12-18T01:01:49;72.88;;;35.47;;
46563;SDS011;32291;52.010;4.446;2022-12-18T01:02:51;83.50;;;36.95;;
46563;SDS011;32291;52.010;4.446;2022-12-18T01:03:53;84.85;;;39.70;;
46563;SDS011;32291;52.010;4.446;2022-12-18T01:04:58;83.13;;;37.22;;
46563;SDS011;32291;52.010;4.446;2022-12-18T01:06:05;77.72;;;37.05;;
46563;SDS011;32291;52.010;4.446;2022-12-18T01:07:09;80.38;;;38.35;;
46563;SDS011;32291;52.010;4.446;2022-12-18T01:08:10;83.72;;;36.78;;
46563;SDS011;32291;52.010;4.446;2022-12-18T01:09:12;76.97;;;36.10;;
46563;SDS011;32291;52.010;4.446;2022-12-18T01:10:14;81.60;;;37.35;;
46563;SDS011;32291;52.010;4.446;2022-12-18T01:11:17;80.43;;;39.03;;
46563;SDS011;32291;52.010;4.446;2022-12-18T01:12:20;86.43;;;39.80;;
46563;SDS011;32291;52.010;4.446;2022-12-18T01:13:22;82.85;;;37.00;;
46563;SDS011;32291;52.010;4.446;2022-12-18T01:14:23;78.85;;;37.63;;
46563;SDS011;32291;52.010;4.446;2022-12-18T01:15:25;82.20;;;37.35;;
46563;SDS011;32291;52.010;4.446;2022-12-18T01:16:27;83.40;;;37.85;;
46563;SDS011;32291;52.010;4.446;2022-12-18T01:17:29;75.72;;;35.45;;
46563;SDS011;32291;52.010;4.446;2022-12-18T01:18:31;83.80;;;39.25;;
46563;SDS011;32291;52.010;4.446;2022-12-18T01:19:33;86.03;;;36.67;;
46563;SDS011;32291;52.010;4.446;2022-12-18T01:20:35;81.53;;;38.50;;
46563;SDS011;32291;52.010;4.446;2022-12-18T01:21:39;80.47;;;37.00;;
46563;SDS011;32291;52.010;4.446;2022-12-18T01:22:41;81.55;;;35.72;;
46563;SDS011;32291;52.010;4.446;2022-12-18T01:23:44;79.88;;;37.80;;
46563;SDS011;32291;52.010;4.446;2022-12-18T01:24:45;86.07;;;37.60;;
46563;SDS011;32291;52.010;4.446;2022-12-18T01:25:48;81.88;;;35.55;;
46563;SDS011;32291;52.010;4.446;2022-12-18T01:26:49;82.28;;;36.92;;
46563;SDS011;32291;52.010;4.446;2022-12-18T01:27:51;84.60;;;37.60;;
46563;SDS011;32291;52.010;4.446;2022-12-18T01:28:53;84.57;;;37.13;;
46563;SDS011;32291;52.010;4.446;2022-12-18T01:29:57;83.63;;;36.20;;
46563;SDS011;32291;52.010;4.446;2022-12-18T01:31:09;83.93;;;36.33;;
46563;SDS011;32291;52.010;4.446;2022-12-18T01:32:17;81.82;;;36.47;;
46563;SDS011;32291;52.010;4.446;2022-12-18T01:33:19;75.18;;;35.67;;
46563;SDS011;32291;52.010;4.446;2022-12-18T01:34:21;81.90;;;36.33;;
46563;SDS011;32291;52.010;4.446;2022-12-18T01:35:23;80.30;;;36.75;;
46563;SDS011;32291;52.010;4.446;2022-12-18T01:36:26;82.18;;;38.22;;
46563;SDS011;32291;52.010;4.446;2022-12-18T01:37:35;78.43;;;34.40;;
46563;SDS011;32291;52.010;4.446;2022-12-18T01:38:36;78.40;;;35.50;;
46563;SDS011;32291;52.010;4.446;2022-12-18T01:39:38;80.00;;;37.55;;
46563;SDS011;32291;52.010;4.446;2022-12-18T01:40:40;77.53;;;36.15;;
46563;SDS011;32291;52.010;4.446;2022-12-18T01:41:41;94.53;;;38.42;;
46563;SDS011;32291;52.010;4.446;2022-12-18T01:43:02;91.82;;;36.63;;
46563;SDS011;32291;52.010;4.446;2022-12-18T01:44:46;87.22;;;37.22;;
46563;SDS011;32291;52.010;4.446;2022-12-18T01:45:54;85.60;;;36.35;;
46563;SDS011;32291;52.010;4.446;2022-12-18T01:47:00;93.97;;;36.40;;
46563;SDS011;32291;52.010;4.446;2022-12-18T01:48:03;86.25;;;38.08;;
46563;SDS011;32291;52.010;4.446;2022-12-18T01:49:09;85.65;;;37.42;;
46563;SDS011;32291;52.010;4.446;2022-12-18T01:50:19;86.43;;;36.42;;
46563;SDS011;32291;52.010;4.446;2022-12-18T01:51:31;93.10;;;38.47;;
46563;SDS011;32291;52.010;4.446;2022-12-18T01:52:33;87.25;;;37.95;;
46563;SDS011;32291;52.010;4.446;2022-12-18T01:53:36;88.03;;;37.05;;
46563;SDS011;32291;52.010;4.446;2022-12-18T01:54:41;82.85;;;36.25;;
46563;SDS011;32291;52.010;4.446;2022-12-18T01:55:43;81.47;;;37.45;;
46563;SDS011;32291;52.010;4.446;2022-12-18T01:56:52;85.43;;;36.45;;
46563;SDS011;32291;52.010;4.446;2022-12-18T01:57:55;82.82;;;35.95;;
46563;SDS011;32291;52.010;4.446;2022-12-18T01:59:02;95.53;;;40.20;;
46563;SDS011;32291;52.010;4.446;2022-12-18T02:00:11;87.82;;;39.10;;
46563;SDS011;32291;52.010;4.446;2022-12-18T02:01:18;87.60;;;38.17;;
46563;SDS011;32291;52.010;4.446;2022-12-18T02:02:24;88.85;;;38.60;;
46563;SDS011;32291;52.010;4.446;2022-12-18T02:03:31;79.00;;;35.75;;
46563;SDS011;32291;52.010;4.446;2022-12-18T02:04:33;87.30;;;38.25;;
46563;SDS011;32291;52.010;4.446;2022-12-18T02:09:59;89.93;;;36.90;;
46563;SDS011;32291;52.010;4.446;2022-12-18T02:11:39;79.63;;;35.55;;
46563;SDS011;32291;52.010;4.446;2022-12-18T02:16:24;91.30;;;37.58;;
46563;SDS011;32291;52.010;4.446;2022-12-18T02:17:42;83.25;;;35.03;;
46563;SDS011;32291;52.010;4.446;2022-12-18T02:18:56;88.00;;;37.95;;
46563;SDS011;32291;52.010;4.446;2022-12-18T02:20:23;82.85;;;36.58;;
46563;SDS011;32291;52.010;4.446;2022-12-18T02:21:45;85.40;;;36.33;;
46563;SDS011;32291;52.010;4.446;2022-12-18T02:24:51;82.93;;;37.97;;
46563;SDS011;32291;52.010;4.446;2022-12-18T02:27:54;81.30;;;35.78;;
46563;SDS011;32291;52.010;4.446;2022-12-18T02:29:03;86.43;;;40.13;;
46563;SDS011;32291;52.010;4.446;2022-12-18T02:30:15;90.30;;;38.30;;
46563;SDS011;32291;52.010;4.446;2022-12-18T02:31:20;81.60;;;37.70;;
46563;SDS011;32291;52.010;4.446;2022-12-18T02:32:27;87.88;;;36.78;;
46563;SDS011;32291;52.010;4.446;2022-12-18T02:33:35;97.60;;;39.78;;
46563;SDS011;32291;52.010;4.446;2022-12-18T02:34:39;88.55;;;39.13;;
46563;SDS011;32291;52.010;4.446;2022-12-18T02:35:44;86.00;;;35.40;;
46563;SDS011;32291;52.010;4.446;2022-12-18T02:36:49;89.28;;;37.90;;
46563;SDS011;32291;52.010;4.446;2022-12-18T02:37:54;89.88;;;39.83;;
46563;SDS011;32291;52.010;4.446;2022-12-18T02:38:57;84.30;;;37.72;;
46563;SDS011;32291;52.010;4.446;2022-12-18T02:40:02;90.32;;;40.00;;
46563;SDS011;32291;52.010;4.446;2022-12-18T02:41:06;87.10;;;39.00;;
46563;SDS011;32291;52.010;4.446;2022-12-18T02:42:09;92.38;;;38.00;;
46563;SDS011;32291;52.010;4.446;2022-12-18T02:43:13;94.18;;;39.90;;
46563;SDS011;32291;52.010;4.446;2022-12-18T02:44:17;87.03;;;38.67;;
46563;SDS011;32291;52.010;4.446;2022-12-18T02:45:19;90.13;;;39.03;;
46563;SDS011;32291;52.010;4.446;2022-12-18T02:47:38;92.60;;;39.63;;
46563;SDS011;32291;52.010;4.446;2022-12-18T02:48:44;89.70;;;39.42;;
46563;SDS011;32291;52.010;4.446;2022-12-18T02:54:49;80.50;;;38.20;;
46563;SDS011;32291;52.010;4.446;2022-12-18T02:56:22;77.35;;;34.85;;
46563;SDS011;32291;52.010;4.446;2022-12-18T02:57:40;77.63;;;35.22;;
46563;SDS011;32291;52.010;4.446;2022-12-18T02:59:04;80.93;;;35.47;;
46563;SDS011;32291;52.010;4.446;2022-12-18T03:01:42;84.85;;;36.25;;
46563;SDS011;32291;52.010;4.446;2022-12-18T03:04:14;71.63;;;35.15;;
46563;SDS011;32291;52.010;4.446;2022-12-18T03:05:35;88.55;;;37.50;;
46563;SDS011;32291;52.010;4.446;2022-12-18T03:06:53;77.90;;;36.53;;
46563;SDS011;32291;52.010;4.446;2022-12-18T03:08:07;81.07;;;35.67;;
46563;SDS011;32291;52.010;4.446;2022-12-18T03:09:24;76.50;;;36.65;;
46563;SDS011;32291;52.010;4.446;2022-12-18T03:10:49;78.25;;;34.65;;
46563;SDS011;32291;52.010;4.446;2022-12-18T03:12:10;72.63;;;34.58;;
46563;SDS011;32291;52.010;4.446;2022-12-18T03:13:40;75.57;;;36.72;;
46563;SDS011;32291;52.010;4.446;2022-12-18T03:16:26;81.05;;;37.10;;
46563;SDS011;32291;52.010;4.446;2022-12-18T03:17:31;95.65;;;35.65;;
46563;SDS011;32291;52.010;4.446;2022-12-18T03:18:39;98.22;;;36.95;;
46563;SDS011;32291;52.010;4.446;2022-12-18T03:20:15;76.47;;;34.58;;
46563;SDS011;32291;52.010;4.446;2022-12-18T03:21:22;82.03;;;34.28;;
46563;SDS011;32291;52.010;4.446;2022-12-18T03:22:44;107.55;;;35.60;;
46563;SDS011;32291;52.010;4.446;2022-12-18T03:23:54;80.55;;;34.28;;
46563;SDS011;32291;52.010;4.446;2022-12-18T03:24:56;101.38;;;34.80;;
46563;SDS011;32291;52.010;4.446;2022-12-18T03:26:05;83.68;;;35.20;;
46563;SDS011;32291;52.010;4.446;2022-12-18T03:27:11;81.57;;;35.83;;
46563;SDS011;32291;52.010;4.446;2022-12-18T03:28:21;81.97;;;35.50;;
46563;SDS011;32291;52.010;4.446;2022-12-18T03:29:25;74.20;;;34.33;;
46563;SDS011;32291;52.010;4.446;2022-12-18T03:30:41;74.95;;;33.88;;
46563;SDS011;32291;52.010;4.446;2022-12-18T03:31:53;74.45;;;33.35;;
46563;SDS011;32291;52.010;4.446;2022-12-18T03:34:14;76.10;;;33.85;;
46563;SDS011;32291;52.010;4.446;2022-12-18T03:35:26;66.45;;;32.00;;
46563;SDS011;32291;52.010;4.446;2022-12-18T03:36:38;77.38;;;32.53;;
46563;SDS011;32291;52.010;4.446;2022-12-18T03:37:40;102.90;;;35.17;;
46563;SDS011;32291;52.010;4.446;2022-12-18T03:38:42;72.93;;;32.53;;
46563;SDS011;32291;52.010;4.446;2022-12-18T03:39:43;78.47;;;32.00;;
46563;SDS011;32291;52.010;4.446;2022-12-18T03:42:30;67.38;;;31.17;;
46563;SDS011;32291;52.010;4.446;2022-12-18T03:43:55;65.70;;;32.17;;
46563;SDS011;32291;52.010;4.446;2022-12-18T03:48:15;64.68;;;31.45;;
46563;SDS011;32291;52.010;4.446;2022-12-18T03:49:32;74.93;;;32.70;;
46563;SDS011;32291;52.010;4.446;2022-12-18T03:53:44;75.93;;;32.28;;
46563;SDS011;32291;52.010;4.446;2022-12-18T03:54:57;66.80;;;30.35;;
46563;SDS011;32291;52.010;4.446;2022-12-18T03:56:01;70.10;;;32.25;;
46563;SDS011;32291;52.010;4.446;2022-12-18T03:57:07;68.57;;;30.30;;
46563;SDS011;32291;52.010;4.446;2022-12-18T03:58:17;67.30;;;33.00;;
46563;SDS011;32291;52.010;4.446;2022-12-18T03:59:24;72.15;;;31.95;;
46563;SDS011;32291;52.010;4.446;2022-12-18T04:00:30;66.00;;;33.20;;
46563;SDS011;32291;52.010;4.446;2022-12-18T04:01:35;69.60;;;31.73;;
46563;SDS011;32291;52.010;4.446;2022-12-18T04:02:53;66.20;;;30.90;;
46563;SDS011;32291;52.010;4.446;2022-12-18T04:03:58;68.35;;;31.45;;
46563;SDS011;32291;52.010;4.446;2022-12-18T04:05:04;68.97;;;30.80;;
46563;SDS011;32291;52.010;4.446;2022-12-18T04:06:09;72.03;;;31.65;;
46563;SDS011;32291;52.010;4.446;2022-12-18T04:07:12;64.20;;;31.08;;
46563;SDS011;32291;52.010;4.446;2022-12-18T04:08:16;81.93;;;31.95;;
46563;SDS011;32291;52.010;4.446;2022-12-18T04:09:19;76.28;;;34.20;;
46563;SDS011;32291;52.010;4.446;2022-12-18T04:10:21;69.80;;;32.05;;
46563;SDS011;32291;52.010;4.446;2022-12-18T04:11:23;88.53;;;33.20;;
46563;SDS011;32291;52.010;4.446;2022-12-18T04:12:26;66.20;;;30.58;;
46563;SDS011;32291;52.010;4.446;2022-12-18T04:13:34;83.70;;;33.15;;
46563;SDS011;32291;52.010;4.446;2022-12-18T04:14:38;75.65;;;34.13;;
46563;SDS011;32291;52.010;4.446;2022-12-18T04:15:40;78.47;;;34.45;;
46563;SDS011;32291;52.010;4.446;2022-12-18T04:16:42;75.47;;;32.08;;
46563;SDS011;32291;52.010;4.446;2022-12-18T04:17:47;63.05;;;32.90;;
46563;SDS011;32291;52.010;4.446;2022-12-18T04:18:50;65.78;;;32.85;;
46563;SDS011;32291;52.010;4.446;2022-12-18T04:19:53;72.13;;;31.63;;
46563;SDS011;32291;52.010;4.446;2022-12-18T04:20:55;69.90;;;34.00;;
46563;SDS011;32291;52.010;4.446;2022-12-18T04:21:57;67.13;;;31.75;;
46563;SDS011;32291;52.010;4.446;2022-12-18T04:22:58;71.45;;;31.85;;
46563;SDS011;32291;52.010;4.446;2022-12-18T04:24:00;64.15;;;31.80;;
46563;SDS011;32291;52.010;4.446;2022-12-18T04:25:03;72.13;;;32.72;;
46563;SDS011;32291;52.010;4.446;2022-12-18T04:26:05;73.70;;;33.03;;
46563;SDS011;32291;52.010;4.446;2022-12-18T04:27:07;73.90;;;34.05;;
46563;SDS011;32291;52.010;4.446;2022-12-18T04:28:10;74.18;;;32.10;;
46563;SDS011;32291;52.010;4.446;2022-12-18T04:29:12;67.15;;;33.40;;
46563;SDS011;32291;52.010;4.446;2022-12-18T04:30:14;66.72;;;32.03;;
46563;SDS011;32291;52.010;4.446;2022-12-18T04:31:16;67.97;;;33.13;;
46563;SDS011;32291;52.010;4.446;2022-12-18T04:32:18;71.10;;;33.00;;
46563;SDS011;32291;52.010;4.446;2022-12-18T04:33:20;74.43;;;33.83;;
46563;SDS011;32291;52.010;4.446;2022-12-18T04:34:22;74.72;;;35.35;;
46563;SDS011;32291;52.010;4.446;2022-12-18T04:35:24;75.97;;;33.72;;
46563;SDS011;32291;52.010;4.446;2022-12-18T04:36:26;75.47;;;33.58;;
46563;SDS011;32291;52.010;4.446;2022-12-18T04:37:28;75.80;;;34.13;;
46563;SDS011;32291;52.010;4.446;2022-12-18T04:38:30;82.32;;;34.20;;
46563;SDS011;32291;52.010;4.446;2022-12-18T04:39:31;74.07;;;33.35;;
46563;SDS011;32291;52.010;4.446;2022-12-18T04:40:33;78.22;;;34.03;;
46563;SDS011;32291;52.010;4.446;2022-12-18T04:41:36;77.15;;;33.97;;
46563;SDS011;32291;52.010;4.446;2022-12-18T04:42:38;73.20;;;33.08;;
46563;SDS011;32291;52.010;4.446;2022-12-18T04:43:41;74.85;;;33.65;;
46563;SDS011;32291;52.010;4.446;2022-12-18T04:44:46;82.13;;;34.00;;
46563;SDS011;32291;52.010;4.446;2022-12-18T04:46:03;73.53;;;33.67;;
46563;SDS011;32291;52.010;4.446;2022-12-18T04:47:07;74.57;;;32.75;;
46563;SDS011;32291;52.010;4.446;2022-12-18T04:48:09;77.28;;;33.10;;
46563;SDS011;32291;52.010;4.446;2022-12-18T04:49:14;68.20;;;32.65;;
46563;SDS011;32291;52.010;4.446;2022-12-18T04:50:16;72.28;;;35.22;;
46563;SDS011;32291;52.010;4.446;2022-12-18T04:51:17;78.85;;;34.10;;
46563;SDS011;32291;52.010;4.446;2022-12-18T04:52:23;73.43;;;34.55;;
46563;SDS011;32291;52.010;4.446;2022-12-18T04:53:31;71.70;;;32.42;;
46563;SDS011;32291;52.010;4.446;2022-12-18T04:54:33;71.07;;;31.23;;
46563;SDS011;32291;52.010;4.446;2022-12-18T04:55:35;69.32;;;34.05;;
46563;SDS011;32291;52.010;4.446;2022-12-18T04:56:37;70.72;;;32.15;;
46563;SDS011;32291;52.010;4.446;2022-12-18T04:57:39;72.15;;;31.65;;
46563;SDS011;32291;52.010;4.446;2022-12-18T04:58:41;66.88;;;32.42;;
46563;SDS011;32291;52.010;4.446;2022-12-18T04:59:46;71.65;;;32.80;;
46563;SDS011;32291;52.010;4.446;2022-12-18T05:00:48;62.85;;;32.28;;
46563;SDS011;32291;52.010;4.446;2022-12-18T05:01:49;70.55;;;33.15;;
46563;SDS011;32291;52.010;4.446;2022-12-18T05:02:51;72.78;;;31.83;;
46563;SDS011;32291;52.010;4.446;2022-12-18T05:03:53;69.70;;;33.10;;
46563;SDS011;32291;52.010;4.446;2022-12-18T05:04:54;70.32;;;33.92;;
46563;SDS011;32291;52.010;4.446;2022-12-18T05:05:56;69.72;;;33.22;;
46563;SDS011;32291;52.010;4.446;2022-12-18T05:06:58;65.93;;;31.17;;
46563;SDS011;32291;52.010;4.446;2022-12-18T05:08:00;64.28;;;32.03;;
46563;SDS011;32291;52.010;4.446;2022-12-18T05:09:02;61.22;;;32.35;;
46563;SDS011;32291;52.010;4.446;2022-12-18T05:10:04;63.75;;;33.10;;
46563;SDS011;32291;52.010;4.446;2022-12-18T05:11:10;64.55;;;32.67;;
46563;SDS011;32291;52.010;4.446;2022-12-18T05:12:16;69.68;;;32.90;;
46563;SDS011;32291;52.010;4.446;2022-12-18T05:13:18;61.05;;;31.05;;
46563;SDS011;32291;52.010;4.446;2022-12-18T05:14:20;64.25;;;30.45;;
46563;SDS011;32291;52.010;4.446;2022-12-18T05:15:21;66.82;;;31.95;;
46563;SDS011;32291;52.010;4.446;2022-12-18T05:16:23;65.47;;;32.05;;
46563;SDS011;32291;52.010;4.446;2022-12-18T05:17:25;62.63;;;32.55;;
46563;SDS011;32291;52.010;4.446;2022-12-18T05:18:27;61.85;;;31.33;;
46563;SDS011;32291;52.010;4.446;2022-12-18T05:19:30;59.78;;;31.05;;
46563;SDS011;32291;52.010;4.446;2022-12-18T05:20:31;61.55;;;33.35;;
46563;SDS011;32291;52.010;4.446;2022-12-18T05:21:33;71.65;;;32.63;;
46563;SDS011;32291;52.010;4.446;2022-12-18T05:22:35;70.13;;;34.92;;
46563;SDS011;32291;52.010;4.446;2022-12-18T05:23:37;61.10;;;32.05;;
46563;SDS011;32291;52.010;4.446;2022-12-18T05:24:39;65.43;;;33.33;;
46563;SDS011;32291;52.010;4.446;2022-12-18T05:25:42;58.25;;;31.45;;
46563;SDS011;32291;52.010;4.446;2022-12-18T05:26:47;67.68;;;32.10;;
46563;SDS011;32291;52.010;4.446;2022-12-18T05:27:49;66.20;;;31.75;;
46563;SDS011;32291;52.010;4.446;2022-12-18T05:28:51;61.63;;;32.38;;
46563;SDS011;32291;52.010;4.446;2022-12-18T05:29:53;63.05;;;31.90;;
46563;SDS011;32291;52.010;4.446;2022-12-18T05:30:56;60.35;;;30.65;;
46563;SDS011;32291;52.010;4.446;2022-12-18T05:32:00;62.85;;;32.70;;
46563;SDS011;32291;52.010;4.446;2022-12-18T05:33:02;62.38;;;31.48;;
46563;SDS011;32291;52.010;4.446;2022-12-18T05:34:04;62.22;;;33.30;;
46563;SDS011;32291;52.010;4.446;2022-12-18T05:35:07;66.05;;;32.03;;
46563;SDS011;32291;52.010;4.446;2022-12-18T05:36:10;62.20;;;32.10;;
46563;SDS011;32291;52.010;4.446;2022-12-18T05:37:12;58.17;;;30.90;;
46563;SDS011;32291;52.010;4.446;2022-12-18T05:38:14;59.35;;;30.70;;
46563;SDS011;32291;52.010;4.446;2022-12-18T05:39:16;62.75;;;31.25;;
46563;SDS011;32291;52.010;4.446;2022-12-18T05:40:18;64.60;;;32.65;;
46563;SDS011;32291;52.010;4.446;2022-12-18T05:41:20;60.05;;;29.98;;
46563;SDS011;32291;52.010;4.446;2022-12-18T05:42:22;63.92;;;32.20;;
46563;SDS011;32291;52.010;4.446;2022-12-18T05:43:25;62.92;;;32.33;;
46563;SDS011;32291;52.010;4.446;2022-12-18T05:44:28;67.40;;;32.28;;
46563;SDS011;32291;52.010;4.446;2022-12-18T05:45:30;72.15;;;34.38;;
46563;SDS011;32291;52.010;4.446;2022-12-18T05:46:31;64.28;;;32.58;;
46563;SDS011;32291;52.010;4.446;2022-12-18T05:47:33;62.45;;;33.00;;
46563;SDS011;32291;52.010;4.446;2022-12-18T05:48:36;58.22;;;29.42;;
46563;SDS011;32291;52.010;4.446;2022-12-18T05:49:38;61.03;;;32.00;;
46563;SDS011;32291;52.010;4.446;2022-12-18T05:50:40;64.90;;;32.03;;
46563;SDS011;32291;52.010;4.446;2022-12-18T05:51:43;65.03;;;33.72;;
46563;SDS011;32291;52.010;4.446;2022-12-18T05:52:45;66.93;;;32.42;;
46563;SDS011;32291;52.010;4.446;2022-12-18T05:53:46;62.10;;;32.55;;
46563;SDS011;32291;52.010;4.446;2022-12-18T05:54:49;66.55;;;31.52;;
46563;SDS011;32291;52.010;4.446;2022-12-18T05:55:51;61.97;;;32.47;;
46563;SDS011;32291;52.010;4.446;2022-12-18T05:56:53;62.47;;;31.08;;
46563;SDS011;32291;52.010;4.446;2022-12-18T05:57:55;63.63;;;31.13;;
46563;SDS011;32291;52.010;4.446;2022-12-18T05:58:57;61.90;;;30.98;;
46563;SDS011;32291;52.010;4.446;2022-12-18T05:59:59;61.67;;;33.30;;
46563;SDS011;32291;52.010;4.446;2022-12-18T06:01:08;59.60;;;31.67;;
46563;SDS011;32291;52.010;4.446;2022-12-18T06:02:16;57.67;;;31.42;;
46563;SDS011;32291;52.010;4.446;2022-12-18T06:03:17;65.68;;;31.75;;
46563;SDS011;32291;52.010;4.446;2022-12-18T06:04:19;61.78;;;32.75;;
46563;SDS011;32291;52.010;4.446;2022-12-18T06:05:21;63.80;;;32.28;;
46563;SDS011;32291;52.010;4.446;2022-12-18T06:06:23;59.90;;;30.40;;
46563;SDS011;32291;52.010;4.446;2022-12-18T06:07:27;57.60;;;31.92;;
46563;SDS011;32291;52.010;4.446;2022-12-18T06:08:29;63.80;;;32.03;;
46563;SDS011;32291;52.010;4.446;2022-12-18T06:09:31;59.05;;;32.53;;
46563;SDS011;32291;52.010;4.446;2022-12-18T06:10:33;60.03;;;31.58;;
46563;SDS011;32291;52.010;4.446;2022-12-18T06:11:36;60.95;;;32.20;;
46563;SDS011;32291;52.010;4.446;2022-12-18T06:12:39;59.08;;;31.95;;
46563;SDS011;32291;52.010;4.446;2022-12-18T06:13:40;59.10;;;32.42;;
46563;SDS011;32291;52.010;4.446;2022-12-18T06:14:42;61.40;;;31.60;;
46563;SDS011;32291;52.010;4.446;2022-12-18T06:15:44;54.20;;;29.95;;
46563;SDS011;32291;52.010;4.446;2022-12-18T06:16:46;66.65;;;32.58;;
46563;SDS011;32291;52.010;4.446;2022-12-18T06:17:51;59.17;;;30.35;;
46563;SDS011;32291;52.010;4.446;2022-12-18T06:18:53;61.53;;;31.05;;
46563;SDS011;32291;52.010;4.446;2022-12-18T06:20:03;59.13;;;31.73;;
46563;SDS011;32291;52.010;4.446;2022-12-18T06:21:07;57.20;;;30.80;;
46563;SDS011;32291;52.010;4.446;2022-12-18T06:22:12;65.68;;;33.47;;
46563;SDS011;32291;52.010;4.446;2022-12-18T06:23:14;59.42;;;30.90;;
46563;SDS011;32291;52.010;4.446;2022-12-18T06:24:16;59.50;;;33.58;;
46563;SDS011;32291;52.010;4.446;2022-12-18T06:25:18;60.28;;;31.10;;
46563;SDS011;32291;52.010;4.446;2022-12-18T06:26:20;61.75;;;31.95;;
46563;SDS011;32291;52.010;4.446;2022-12-18T06:27:22;59.28;;;31.58;;
46563;SDS011;32291;52.010;4.446;2022-12-18T06:28:24;63.40;;;31.17;;
46563;SDS011;32291;52.010;4.446;2022-12-18T06:29:26;56.03;;;30.67;;
46563;SDS011;32291;52.010;4.446;2022-12-18T06:30:27;61.38;;;31.02;;
46563;SDS011;32291;52.010;4.446;2022-12-18T06:31:29;63.72;;;31.63;;
46563;SDS011;32291;52.010;4.446;2022-12-18T06:32:31;61.25;;;32.40;;
46563;SDS011;32291;52.010;4.446;2022-12-18T06:33:33;57.80;;;31.25;;
46563;SDS011;32291;52.010;4.446;2022-12-18T06:34:38;60.97;;;31.20;;
46563;SDS011;32291;52.010;4.446;2022-12-18T06:35:40;57.33;;;29.42;;
46563;SDS011;32291;52.010;4.446;2022-12-18T06:36:43;64.38;;;32.38;;
46563;SDS011;32291;52.010;4.446;2022-12-18T06:37:45;58.40;;;31.30;;
46563;SDS011;32291;52.010;4.446;2022-12-18T06:38:46;57.75;;;30.73;;
46563;SDS011;32291;52.010;4.446;2022-12-18T06:39:48;59.53;;;30.65;;
46563;SDS011;32291;52.010;4.446;2022-12-18T06:40:50;59.70;;;30.88;;
46563;SDS011;32291;52.010;4.446;2022-12-18T06:41:51;57.05;;;30.30;;
46563;SDS011;32291;52.010;4.446;2022-12-18T06:42:53;58.65;;;31.05;;
46563;SDS011;32291;52.010;4.446;2022-12-18T06:43:55;55.05;;;30.45;;
46563;SDS011;32291;52.010;4.446;2022-12-18T06:44:59;54.47;;;29.95;;
46563;SDS011;32291;52.010;4.446;2022-12-18T06:46:01;53.60;;;29.48;;
46563;SDS011;32291;52.010;4.446;2022-12-18T06:47:05;59.40;;;30.45;;
46563;SDS011;32291;52.010;4.446;2022-12-18T06:48:07;57.17;;;30.30;;
46563;SDS011;32291;52.010;4.446;2022-12-18T06:49:09;55.13;;;28.48;;
46563;SDS011;32291;52.010;4.446;2022-12-18T06:50:11;59.30;;;30.85;;
46563;SDS011;32291;52.010;4.446;2022-12-18T06:51:18;49.15;;;28.13;;